Airport Name : Presidente Juscelino Kubitschek

Other Name : Brasilia

ICAO : SBBR

IATA : BSB

FAA :

Latitude : -15.8711

Longitude : -47.918625

Country : Brazil

Local Date and Time : 11/20/2018 7:46:00 PM

 

TAF (Terminal Aerodrome Forecast)

TAF SBBR 201600Z 2018/2118 12006KT 9999 BKN025 FEW045TCU TN19/2108Z TX26/2117Z PROB30 2018/2023 7000 RA BKN020 FEW045TCU BECMG 2020/2022 23004KT SCT030 FEW045TCU BECMG 2024/2102 FEW040 BECMG 2105/2107 11004KT SCT012 PROB40 2108/2113 BKN008 BECMG 2109/2111 10007KT BECMG 2113/2114 06008KT BKN025 BECMG 2115/2117 BKN030 FEW035TCU RMK PEJ

 

METAR (METeorological Aerodrome Report)

SBBR 202100Z 10005KT 9999 BKN020 FEW025TCU BKN080 22/20 Q1017

SBBR 202000Z 11006KT 8000 -RA BKN020 FEW025TCU BKN080 23/20 Q10 17

SBBR 201900Z 07006KT 040V100 9999 BKN020 FEW025TCU BKN080 25/19 Q1017

SBBR 201800Z 04005KT 360V090 9999 BKN020 FEW025TCU BKN080 25/19 Q1017